Time;durP1;ratioP1;P1;durP2;ratioP2;P2;SDS_P1;SDS_P2;PMS_P1;PMS_P2;Temp;Humidity;BMP_temperature;BMP_pressure;BME280_temperature;BME280_humidity;BME280_pressure;Samples;Min_cycle;Max_cycle;Signal;HPM_P1;HPM_P2
2021/05/13 00:01:50;;;;;;;14.02;6.28;;;;;;;;;;4971733;28;20058;-88
2021/05/13 00:04:17;;;;;;;17.75;6.20;;;;;;;;;;4968733;28;20058;-88
2021/05/13 00:06:44;;;;;;;14.38;6.60;;;;;;;;;;4970346;28;20422;-88
2021/05/13 00:09:17;;;;;;;21.52;7.28;;;;;;;;;;4995312;28;20103;-87
2021/05/13 00:11:47;;;;;;;17.85;7.28;;;;;;;;;;4980639;28;20066;-88
2021/05/13 00:14:16;;;;;;;22.50;7.32;;;;;;;;;;4997828;28;20043;-88
2021/05/13 00:16:46;;;;;;;17.23;6.80;;;;;;;;;;4980176;28;20118;-87
2021/05/13 00:19:16;;;;;;;19.50;8.60;;;;;;;;;;4967931;28;20073;-87
2021/05/13 00:21:51;;;;;;;27.98;8.68;;;;;;;;;;4966513;28;20069;-88
2021/05/13 00:24:21;;;;;;;25.20;8.60;;;;;;;;;;4983957;28;20142;-88
2021/05/13 00:26:50;;;;;;;24.67;8.98;;;;;;;;;;4966750;28;20054;-88
2021/05/13 00:29:26;;;;;;;23.58;8.55;;;;;;;;;;4983880;28;20122;-88
2021/05/13 00:31:52;;;;;;;27.17;9.95;;;;;;;;;;4986076;28;20200;-88
2021/05/13 00:34:35;;;;;;;20.27;9.05;;;;;;;;;;4973031;28;20046;-87
2021/05/13 00:37:01;;;;;;;22.05;10.02;;;;;;;;;;4973225;28;20078;-88
2021/05/13 00:39:28;;;;;;;25.05;9.50;;;;;;;;;;4976144;28;20090;-87
2021/05/13 00:41:58;;;;;;;18.10;8.10;;;;;;;;;;4972132;28;20049;-88
2021/05/13 00:44:35;;;;;;;18.17;8.82;;;;;;;;;;4971809;28;20059;-88
2021/05/13 00:47:04;;;;;;;19.27;9.27;;;;;;;;;;4972532;28;20062;-87
2021/05/13 00:49:31;;;;;;;27.85;10.10;;;;;;;;;;4967347;28;20065;-87
2021/05/13 00:51:57;;;;;;;23.55;10.40;;;;;;;;;;4963359;29;20255;-87
2021/05/13 00:54:25;;;;;;;32.33;10.73;;;;;;;;;;4962866;29;20137;-86
2021/05/13 00:56:52;;;;;;;28.13;10.45;;;;;;;;;;4964012;29;20445;-87
2021/05/13 00:59:24;;;;;;;26.77;9.52;;;;;;;;;;4964861;29;20056;-86
2021/05/13 01:01:54;;;;;;;31.17;9.68;;;;;;;;;;4974568;28;20070;-87
2021/05/13 01:04:36;;;;;;;19.17;9.32;;;;;;;;;;4975496;28;20079;-86
2021/05/13 01:07:03;;;;;;;18.45;9.07;;;;;;;;;;4969007;29;20415;-87
2021/05/13 01:09:32;;;;;;;19.48;8.65;;;;;;;;;;4963723;28;20066;-87
2021/05/13 01:12:02;;;;;;;17.98;8.55;;;;;;;;;;4962136;29;20051;-86
2021/05/13 01:19:43;;;;;;;22.20;9.07;;;;;;;;;;4977504;28;20457;-88
2021/05/13 01:22:13;;;;;;;21.13;8.70;;;;;;;;;;4967832;29;20120;-88
2021/05/13 01:24:40;;;;;;;19.40;9.65;;;;;;;;;;4964440;28;20073;-88
2021/05/13 01:27:10;;;;;;;21.80;9.80;;;;;;;;;;4967123;28;20043;-86
2021/05/13 01:29:44;;;;;;;17.45;8.45;;;;;;;;;;4974376;28;20095;-87
2021/05/13 01:32:14;;;;;;;20.25;9.20;;;;;;;;;;4965174;29;20361;-87
2021/05/13 01:34:42;;;;;;;24.67;10.18;;;;;;;;;;4963109;29;20369;-87
2021/05/13 01:37:12;;;;;;;28.63;9.52;;;;;;;;;;4963354;28;20387;-87
2021/05/13 01:39:38;;;;;;;23.58;9.25;;;;;;;;;;4962317;29;20055;-86
2021/05/13 01:42:05;;;;;;;17.50;9.73;;;;;;;;;;4962733;29;20386;-88
2021/05/13 01:44:32;;;;;;;27.88;9.20;;;;;;;;;;4961367;29;20094;-88
2021/05/13 01:46:59;;;;;;;21.30;9.18;;;;;;;;;;4961804;29;20055;-86
2021/05/13 01:49:28;;;;;;;23.05;9.38;;;;;;;;;;4961948;29;20082;-86
2021/05/13 01:51:54;;;;;;;22.73;11.02;;;;;;;;;;4972022;28;20083;-87
2021/05/13 01:54:26;;;;;;;21.90;10.32;;;;;;;;;;4982935;28;20212;-86
2021/05/13 01:56:59;;;;;;;18.02;10.73;;;;;;;;;;4966129;28;20066;-87
2021/05/13 01:59:48;;;;;;;22.90;10.98;;;;;;;;;;4982495;28;20054;-87
2021/05/13 02:02:20;;;;;;;29.17;11.32;;;;;;;;;;4982456;28;20086;-87
2021/05/13 02:04:47;;;;;;;29.58;11.23;;;;;;;;;;4982705;28;20133;-87
2021/05/13 02:07:20;;;;;;;28.70;11.50;;;;;;;;;;4964558;28;20063;-86
2021/05/13 02:09:47;;;;;;;26.40;11.40;;;;;;;;;;4965439;28;20058;-87
2021/05/13 02:12:13;;;;;;;20.60;10.60;;;;;;;;;;4984957;28;20549;-87
2021/05/13 02:14:42;;;;;;;22.67;11.52;;;;;;;;;;4968314;28;20050;-87
2021/05/13 02:17:12;;;;;;;31.77;11.50;;;;;;;;;;4966267;28;20055;-87
2021/05/13 02:19:39;;;;;;;27.38;11.90;;;;;;;;;;4965458;28;20419;-87
2021/05/13 02:22:06;;;;;;;22.55;11.00;;;;;;;;;;4965006;28;20347;-87
2021/05/13 02:24:36;;;;;;;19.23;9.85;;;;;;;;;;4964625;28;20393;-86
2021/05/13 02:27:02;;;;;;;23.50;10.40;;;;;;;;;;4965536;28;20054;-87
2021/05/13 02:29:29;;;;;;;20.63;9.98;;;;;;;;;;4965182;28;20051;-87
2021/05/13 02:31:59;;;;;;;29.65;11.20;;;;;;;;;;4964226;28;20063;-87
2021/05/13 02:34:29;;;;;;;32.20;11.57;;;;;;;;;;4965121;28;20093;-87
2021/05/13 02:36:55;;;;;;;24.33;11.10;;;;;;;;;;4964873;28;20055;-87
2021/05/13 02:39:28;;;;;;;24.77;11.02;;;;;;;;;;4965475;28;20055;-87
2021/05/13 02:41:57;;;;;;;22.30;10.23;;;;;;;;;;4965469;28;20055;-87
2021/05/13 02:44:25;;;;;;;25.23;10.55;;;;;;;;;;4965341;28;20062;-87
2021/05/13 02:47:04;;;;;;;25.45;10.75;;;;;;;;;;4966592;28;20086;-87
2021/05/13 02:49:31;;;;;;;17.83;10.07;;;;;;;;;;4965437;28;20058;-87
2021/05/13 02:51:57;;;;;;;22.38;10.80;;;;;;;;;;4965790;28;20059;-87
2021/05/13 02:54:26;;;;;;;23.52;11.20;;;;;;;;;;4965791;28;20065;-87
2021/05/13 02:56:55;;;;;;;17.35;9.77;;;;;;;;;;4965632;28;20058;-87
2021/05/13 02:59:33;;;;;;;27.15;10.70;;;;;;;;;;4965559;28;20055;-87
2021/05/13 03:02:00;;;;;;;28.70;11.63;;;;;;;;;;4964746;28;20402;-87
2021/05/13 03:04:27;;;;;;;23.30;11.00;;;;;;;;;;4982585;28;20055;-87
2021/05/13 03:06:54;;;;;;;22.35;11.50;;;;;;;;;;4978778;28;20047;-86
2021/05/13 03:09:21;;;;;;;27.85;11.45;;;;;;;;;;4979394;28;20102;-87
2021/05/13 03:11:47;;;;;;;26.02;11.27;;;;;;;;;;4981850;28;20057;-87
2021/05/13 03:14:32;;;;;;;18.80;10.82;;;;;;;;;;4962017;28;20061;-87
2021/05/13 03:17:02;;;;;;;25.35;10.82;;;;;;;;;;4944783;29;20367;-87
2021/05/13 03:19:40;;;;;;;30.13;11.02;;;;;;;;;;4946510;29;20062;-87
2021/05/13 03:22:09;;;;;;;25.80;10.38;;;;;;;;;;4950587;29;20059;-87
2021/05/13 03:29:54;;;;;;;31.80;11.52;;;;;;;;;;4967297;29;20059;-88
2021/05/13 03:32:21;;;;;;;26.80;12.25;;;;;;;;;;4965665;29;20122;-87
2021/05/13 03:34:48;;;;;;;22.90;12.38;;;;;;;;;;4966555;29;20059;-87
2021/05/13 03:37:15;;;;;;;24.48;11.43;;;;;;;;;;4965473;29;20219;-88
2021/05/13 03:39:54;;;;;;;28.08;12.48;;;;;;;;;;4948913;29;20103;-87
2021/05/13 03:42:20;;;;;;;23.60;11.57;;;;;;;;;;4965889;29;20055;-87
2021/05/13 03:44:48;;;;;;;26.40;12.38;;;;;;;;;;4966546;29;20313;-87
2021/05/13 03:47:21;;;;;;;23.25;11.98;;;;;;;;;;4965976;29;20153;-87
2021/05/13 03:49:48;;;;;;;23.15;11.52;;;;;;;;;;4949232;29;20067;-87
2021/05/13 03:52:14;;;;;;;20.60;9.95;;;;;;;;;;4955953;29;20114;-87
2021/05/13 03:54:44;;;;;;;22.90;11.20;;;;;;;;;;4974247;29;20055;-87
2021/05/13 03:57:15;;;;;;;25.55;11.43;;;;;;;;;;4972172;29;20059;-88
2021/05/13 03:59:42;;;;;;;21.30;11.32;;;;;;;;;;4953555;29;20055;-87
2021/05/13 04:05:12;;;;;;;20.52;11.57;;;;;;;;;;4946230;29;20063;-87
2021/05/13 04:07:42;;;;;;;20.48;11.85;;;;;;;;;;4944258;29;20066;-88
2021/05/13 04:10:09;;;;;;;19.10;10.40;;;;;;;;;;4944147;29;20159;-88
2021/05/13 04:12:40;;;;;;;22.65;11.30;;;;;;;;;;4946945;29;20051;-88
2021/05/13 04:15:11;;;;;;;22.92;11.95;;;;;;;;;;4948456;29;20051;-88
2021/05/13 04:17:41;;;;;;;24.35;11.75;;;;;;;;;;4960742;28;20070;-88
2021/05/13 04:20:11;;;;;;;22.13;11.40;;;;;;;;;;4962064;28;20053;-87
2021/05/13 04:22:37;;;;;;;29.17;11.77;;;;;;;;;;4962425;28;20090;-87
2021/05/13 04:25:05;;;;;;;25.33;12.45;;;;;;;;;;4962192;28;20043;-87
2021/05/13 04:27:35;;;;;;;32.58;13.43;;;;;;;;;;4962319;28;20081;-88
2021/05/13 04:30:03;;;;;;;29.33;12.88;;;;;;;;;;4965086;28;20423;-88
2021/05/13 04:32:30;;;;;;;28.55;14.63;;;;;;;;;;4968378;28;20059;-88
2021/05/13 04:34:57;;;;;;;36.83;16.00;;;;;;;;;;4975930;28;20038;-88
2021/05/13 04:37:26;;;;;;;39.20;16.42;;;;;;;;;;4979847;28;20119;-88
2021/05/13 04:39:53;;;;;;;42.97;17.80;;;;;;;;;;4983913;28;20093;-87
2021/05/13 04:42:20;;;;;;;33.55;16.92;;;;;;;;;;4984234;28;20122;-88
2021/05/13 04:44:46;;;;;;;39.80;19.33;;;;;;;;;;4983988;28;20530;-88
2021/05/13 04:47:27;;;;;;;43.13;19.58;;;;;;;;;;4982826;28;20054;-88
2021/05/13 04:49:55;;;;;;;37.17;18.60;;;;;;;;;;4965521;28;20243;-88
2021/05/13 04:52:24;;;;;;;41.13;20.35;;;;;;;;;;4958437;29;20067;-88
2021/05/13 04:54:58;;;;;;;38.90;21.40;;;;;;;;;;4943984;29;20091;-88
2021/05/13 04:57:25;;;;;;;43.28;21.63;;;;;;;;;;4943930;29;20056;-88
2021/05/13 04:59:52;;;;;;;50.90;25.05;;;;;;;;;;4941820;29;20066;-88
2021/05/13 05:02:19;;;;;;;48.70;25.77;;;;;;;;;;4941399;29;20051;-89
2021/05/13 05:04:46;;;;;;;47.85;24.77;;;;;;;;;;4942157;29;20052;-88
2021/05/13 05:07:13;;;;;;;51.67;26.35;;;;;;;;;;4941734;29;20062;-88
2021/05/13 05:09:39;;;;;;;47.22;23.48;;;;;;;;;;4940404;29;20056;-89
2021/05/13 05:12:07;;;;;;;41.75;22.13;;;;;;;;;;4942185;29;20110;-87
2021/05/13 05:14:34;;;;;;;41.22;22.38;;;;;;;;;;4943401;29;20301;-87
2021/05/13 05:17:01;;;;;;;41.28;23.35;;;;;;;;;;4942462;29;20080;-88
2021/05/13 05:19:41;;;;;;;46.70;24.08;;;;;;;;;;4971229;28;20225;-88
2021/05/13 05:22:08;;;;;;;40.88;23.67;;;;;;;;;;4978116;28;20124;-88
2021/05/13 05:24:38;;;;;;;40.25;20.50;;;;;;;;;;4973252;29;20059;-88
2021/05/13 05:27:08;;;;;;;40.67;21.58;;;;;;;;;;4963939;29;20079;-87
2021/05/13 05:29:41;;;;;;;44.28;22.98;;;;;;;;;;4962443;29;20058;-87
2021/05/13 05:32:07;;;;;;;46.50;21.88;;;;;;;;;;4960304;29;20065;-88
2021/05/13 05:34:40;;;;;;;43.40;22.85;;;;;;;;;;4960650;29;20075;-87
2021/05/13 05:37:10;;;;;;;49.17;24.90;;;;;;;;;;4958881;29;20462;-87
2021/05/13 05:39:40;;;;;;;41.42;23.80;;;;;;;;;;4960901;29;20055;-87
2021/05/13 05:42:08;;;;;;;45.08;24.55;;;;;;;;;;4962027;28;20051;-88
2021/05/13 05:44:34;;;;;;;44.10;24.23;;;;;;;;;;4960237;29;20069;-88
2021/05/13 05:47:07;;;;;;;44.63;23.15;;;;;;;;;;4962480;28;20074;-88
2021/05/13 05:49:37;;;;;;;35.00;19.17;;;;;;;;;;4957100;28;20056;-88
2021/05/13 05:52:04;;;;;;;36.03;17.63;;;;;;;;;;4953742;29;20085;-88
2021/05/13 05:54:39;;;;;;;29.33;15.05;;;;;;;;;;4984765;28;20059;-88
2021/05/13 05:57:14;;;;;;;30.75;13.68;;;;;;;;;;4972302;28;20247;-87
2021/05/13 05:59:41;;;;;;;28.05;13.23;;;;;;;;;;4965359;28;20117;-87
2021/05/13 06:02:10;;;;;;;27.00;11.32;;;;;;;;;;4963866;28;20296;-88
2021/05/13 06:04:39;;;;;;;26.50;13.15;;;;;;;;;;4979622;28;20073;-87
2021/05/13 06:07:17;;;;;;;22.50;10.82;;;;;;;;;;4964403;28;20284;-87
2021/05/13 06:09:45;;;;;;;24.85;12.45;;;;;;;;;;4980092;28;20355;-86
2021/05/13 06:12:12;;;;;;;29.67;13.38;;;;;;;;;;4963049;28;20059;-88
2021/05/13 06:14:42;;;;;;;31.83;15.63;;;;;;;;;;4962615;28;20077;-88
2021/05/13 06:17:12;;;;;;;36.38;16.50;;;;;;;;;;4979858;28;20154;-88
2021/05/13 06:19:39;;;;;;;32.92;13.93;;;;;;;;;;4981174;28;20050;-88
2021/05/13 06:22:12;;;;;;;29.35;13.25;;;;;;;;;;4975338;28;20168;-88
2021/05/13 06:24:38;;;;;;;24.45;13.02;;;;;;;;;;4969771;28;20174;-88
2021/05/13 06:27:06;;;;;;;28.23;13.60;;;;;;;;;;4979514;28;20058;-88
2021/05/13 06:29:36;;;;;;;28.13;12.82;;;;;;;;;;4961301;28;20069;-88
2021/05/13 06:32:05;;;;;;;26.70;11.35;;;;;;;;;;4962126;28;20107;-88
2021/05/13 06:34:36;;;;;;;29.60;11.48;;;;;;;;;;4978656;28;20054;-88
2021/05/13 06:37:24;;;;;;;19.98;8.73;;;;;;;;;;4979465;28;20058;-88
2021/05/13 06:39:51;;;;;;;23.70;9.85;;;;;;;;;;4962785;28;20051;-88
2021/05/13 06:42:18;;;;;;;20.70;11.30;;;;;;;;;;4980010;28;20054;-87
2021/05/13 06:44:51;;;;;;;22.45;10.55;;;;;;;;;;4962355;28;20187;-88
2021/05/13 06:47:20;;;;;;;20.40;10.68;;;;;;;;;;4980187;28;20114;-87
2021/05/13 06:49:47;;;;;;;29.55;11.52;;;;;;;;;;4971052;28;20049;-88
2021/05/13 06:52:14;;;;;;;24.20;11.55;;;;;;;;;;4971088;28;20050;-88
2021/05/13 06:54:41;;;;;;;24.70;12.80;;;;;;;;;;4971881;28;20070;-87
2021/05/13 06:57:16;;;;;;;22.27;11.02;;;;;;;;;;4971890;28;20046;-88
2021/05/13 06:59:43;;;;;;;24.23;10.82;;;;;;;;;;4971780;28;20091;-88
2021/05/13 07:02:10;;;;;;;20.10;9.45;;;;;;;;;;4962691;28;20066;-88
2021/05/13 07:04:46;;;;;;;20.55;12.05;;;;;;;;;;4961662;29;20078;-88
2021/05/13 07:07:24;;;;;;;24.35;10.35;;;;;;;;;;4959655;29;20066;-89
2021/05/13 07:09:54;;;;;;;18.67;9.32;;;;;;;;;;4967310;29;20065;-87
2021/05/13 07:12:24;;;;;;;18.40;10.13;;;;;;;;;;4969101;29;20122;-88
2021/05/13 07:14:54;;;;;;;20.73;8.98;;;;;;;;;;4969176;29;20047;-87
2021/05/13 07:17:20;;;;;;;23.92;9.90;;;;;;;;;;4951478;28;20088;-89
2021/05/13 07:20:06;;;;;;;21.58;8.70;;;;;;;;;;4959255;28;20083;-88
2021/05/13 07:22:34;;;;;;;20.50;9.45;;;;;;;;;;4969091;28;20078;-89
2021/05/13 07:25:04;;;;;;;16.25;8.38;;;;;;;;;;4960551;29;20054;-88
2021/05/13 07:27:44;;;;;;;21.08;9.63;;;;;;;;;;4962228;28;20063;-88
2021/05/13 07:30:15;;;;;;;24.73;9.23;;;;;;;;;;4961355;29;20113;-89
2021/05/13 07:32:43;;;;;;;19.02;8.32;;;;;;;;;;4969676;28;20055;-87
2021/05/13 07:35:17;;;;;;;24.20;8.95;;;;;;;;;;4971576;28;20051;-89
2021/05/13 07:37:45;;;;;;;21.75;8.43;;;;;;;;;;4964191;28;20074;-87
2021/05/13 07:40:13;;;;;;;15.90;7.78;;;;;;;;;;4961953;28;20055;-88
2021/05/13 07:42:55;;;;;;;16.38;6.60;;;;;;;;;;4964130;28;20124;-88
2021/05/13 07:45:22;;;;;;;16.52;7.13;;;;;;;;;;4970982;28;20110;-89
2021/05/13 07:47:54;;;;;;;12.48;5.63;;;;;;;;;;4964710;29;20083;-88
2021/05/13 07:50:27;;;;;;;12.82;5.35;;;;;;;;;;4962470;28;20051;-87
2021/05/13 07:52:56;;;;;;;12.25;4.53;;;;;;;;;;4970739;28;20086;-87
2021/05/13 07:55:26;;;;;;;12.15;4.22;;;;;;;;;;4945183;28;20075;-88
2021/05/13 07:57:53;;;;;;;10.77;3.97;;;;;;;;;;4956400;29;20405;-88
2021/05/13 08:00:23;;;;;;;11.90;3.58;;;;;;;;;;4949457;28;20062;-88
2021/05/13 08:02:55;;;;;;;13.07;4.50;;;;;;;;;;4954591;29;20278;-91
2021/05/13 08:05:29;;;;;;;13.18;4.63;;;;;;;;;;4956002;28;20303;-88
2021/05/13 08:07:56;;;;;;;11.57;4.82;;;;;;;;;;4956634;29;20067;-88
2021/05/13 08:10:23;;;;;;;11.77;3.70;;;;;;;;;;4957350;28;20070;-88
2021/05/13 08:12:50;;;;;;;14.07;3.92;;;;;;;;;;4958275;28;20127;-88
2021/05/13 08:15:17;;;;;;;10.50;3.63;;;;;;;;;;4961659;28;20283;-88
2021/05/13 08:17:44;;;;;;;9.30;3.60;;;;;;;;;;4964762;28;20065;-88
2021/05/13 08:20:15;;;;;;;10.52;3.65;;;;;;;;;;4960652;29;20444;-88
2021/05/13 08:22:43;;;;;;;12.07;3.60;;;;;;;;;;4960710;29;20051;-90
2021/05/13 08:25:28;;;;;;;11.75;3.45;;;;;;;;;;4961947;29;20047;-86
2021/05/13 08:27:55;;;;;;;9.82;3.25;;;;;;;;;;4954043;28;20158;-88
2021/05/13 08:30:22;;;;;;;10.65;3.95;;;;;;;;;;4941384;29;20055;-88
2021/05/13 08:32:50;;;;;;;10.32;2.95;;;;;;;;;;4948041;29;20062;-88
2021/05/13 08:35:16;;;;;;;10.43;3.03;;;;;;;;;;4958936;29;20067;-88
2021/05/13 08:37:46;;;;;;;8.90;3.17;;;;;;;;;;4959107;29;20066;-88
2021/05/13 08:40:13;;;;;;;9.60;2.65;;;;;;;;;;4960030;29;20043;-88
2021/05/13 08:42:46;;;;;;;7.22;2.25;;;;;;;;;;4958133;28;20047;-88
2021/05/13 08:45:13;;;;;;;10.15;2.70;;;;;;;;;;4942580;28;20207;-88
2021/05/13 08:47:49;;;;;;;7.75;2.70;;;;;;;;;;4942009;29;20079;-88
2021/05/13 08:50:17;;;;;;;10.27;2.53;;;;;;;;;;4950567;29;20062;-87
2021/05/13 08:52:45;;;;;;;9.68;2.20;;;;;;;;;;4972746;28;20058;-88
2021/05/13 08:55:15;;;;;;;10.27;2.60;;;;;;;;;;4962591;28;20121;-88
2021/05/13 08:57:44;;;;;;;10.00;3.35;;;;;;;;;;4963102;28;20085;-87
2021/05/13 09:00:24;;;;;;;9.45;3.00;;;;;;;;;;4979050;28;20117;-87
2021/05/13 09:02:52;;;;;;;12.43;2.33;;;;;;;;;;4980280;28;20362;-88
2021/05/13 09:05:20;;;;;;;9.63;1.98;;;;;;;;;;4982936;28;20062;-87
2021/05/13 09:07:54;;;;;;;7.43;2.00;;;;;;;;;;4997362;28;20038;-87
2021/05/13 09:10:22;;;;;;;9.77;2.30;;;;;;;;;;4991506;28;20051;-87
2021/05/13 09:12:50;;;;;;;6.63;2.40;;;;;;;;;;4990906;28;20055;-86
2021/05/13 09:15:23;;;;;;;6.10;1.75;;;;;;;;;;4979636;28;20062;-87
2021/05/13 09:18:01;;;;;;;11.77;2.17;;;;;;;;;;4981093;28;20110;-88
2021/05/13 09:20:46;;;;;;;8.95;2.20;;;;;;;;;;4980133;28;20051;-87
2021/05/13 09:23:17;;;;;;;8.82;2.10;;;;;;;;;;4982790;28;20159;-87
2021/05/13 09:25:46;;;;;;;12.75;2.72;;;;;;;;;;4981121;28;20057;-88
2021/05/13 09:28:13;;;;;;;10.43;2.28;;;;;;;;;;4968339;28;20051;-87
2021/05/13 09:30:40;;;;;;;9.20;1.80;;;;;;;;;;4961497;29;20115;-87
2021/05/13 09:33:10;;;;;;;5.10;1.70;;;;;;;;;;4945988;29;20100;-86
2021/05/13 09:35:37;;;;;;;6.55;1.92;;;;;;;;;;4950632;29;20053;-87
2021/05/13 09:38:05;;;;;;;7.88;1.30;;;;;;;;;;4972150;28;20047;-87
2021/05/13 09:40:52;;;;;;;4.32;1.30;;;;;;;;;;4974055;28;20098;-87
2021/05/13 09:43:28;;;;;;;6.72;1.60;;;;;;;;;;4964043;29;20123;-87
2021/05/13 09:46:30;;;;;;;4.45;1.33;;;;;;;;;;4945536;29;20089;-87
2021/05/13 09:49:00;;;;;;;5.63;1.80;;;;;;;;;;4943986;29;20280;-87
2021/05/13 09:51:52;;;;;;;5.45;1.75;;;;;;;;;;4975792;28;20054;-87
2021/05/13 09:54:46;;;;;;;4.00;1.27;;;;;;;;;;4964306;28;20050;-87
2021/05/13 09:57:27;;;;;;;7.53;2.15;;;;;;;;;;4963458;28;20145;-87
2021/05/13 10:00:01;;;;;;;5.95;1.92;;;;;;;;;;4964012;28;20090;-87
2021/05/13 10:02:43;;;;;;;4.65;1.40;;;;;;;;;;4964362;28;20330;-87
2021/05/13 10:05:22;;;;;;;10.70;1.63;;;;;;;;;;4963537;28;20126;-86
2021/05/13 10:07:50;;;;;;;6.80;1.65;;;;;;;;;;4982140;28;20098;-86
2021/05/13 10:10:37;;;;;;;4.32;1.27;;;;;;;;;;4985327;28;20078;-87
2021/05/13 10:13:05;;;;;;;3.42;1.20;;;;;;;;;;4971759;28;20200;-87
2021/05/13 10:15:34;;;;;;;3.50;1.10;;;;;;;;;;4948459;29;20074;-87
2021/05/13 10:18:05;;;;;;;4.70;1.60;;;;;;;;;;4946956;29;20074;-87
2021/05/13 10:20:35;;;;;;;5.28;1.23;;;;;;;;;;4965327;29;20059;-87
2021/05/13 10:23:04;;;;;;;4.80;1.33;;;;;;;;;;4975182;28;20050;-86
2021/05/13 10:25:33;;;;;;;4.40;1.75;;;;;;;;;;4961783;28;20062;-88
2021/05/13 10:28:14;;;;;;;7.38;1.83;;;;;;;;;;4956232;28;20063;-85
2021/05/13 10:30:58;;;;;;;5.68;1.75;;;;;;;;;;4962497;28;20110;-85
2021/05/13 10:37:09;;;;;;;4.25;1.77;;;;;;;;;;4989914;28;20062;-87
2021/05/13 10:39:58;;;;;;;3.55;1.75;;;;;;;;;;4957733;28;20126;-85
2021/05/13 10:42:32;;;;;;;4.07;1.65;;;;;;;;;;4958548;28;20038;-85
2021/05/13 10:44:59;;;;;;;12.15;2.00;;;;;;;;;;4977911;28;20066;-86
2021/05/13 10:47:36;;;;;;;8.45;2.42;;;;;;;;;;4982540;28;20065;-86
2021/05/13 10:53:45;;;;;;;11.15;3.35;;;;;;;;;;4985955;28;20085;-86
2021/05/13 10:56:29;;;;;;;3.70;1.27;;;;;;;;;;4958365;28;20054;-86
2021/05/13 10:59:02;;;;;;;7.97;1.25;;;;;;;;;;4977416;28;20068;-87
2021/05/13 11:01:37;;;;;;;4.70;1.17;;;;;;;;;;4964005;28;20042;-85
2021/05/13 11:04:21;;;;;;;3.33;0.90;;;;;;;;;;4956923;28;20046;-85
2021/05/13 11:06:51;;;;;;;4.38;1.15;;;;;;;;;;4962124;28;20430;-85
2021/05/13 11:09:41;;;;;;;3.10;1.50;;;;;;;;;;4965146;28;20054;-86
2021/05/13 11:12:29;;;;;;;10.77;2.10;;;;;;;;;;5308911;23;20124;-87
2021/05/13 11:15:19;;;;;;;7.10;3.17;;;;;;;;;;5001350;28;20069;-85
2021/05/13 11:18:05;;;;;;;4.00;1.42;;;;;;;;;;4982193;28;20070;-85
2021/05/13 11:20:39;;;;;;;6.18;1.73;;;;;;;;;;4980121;28;20088;-86
2021/05/13 11:23:22;;;;;;;6.88;3.13;;;;;;;;;;5004708;28;20456;-86
2021/05/13 11:25:59;;;;;;;6.32;1.33;;;;;;;;;;4981075;28;20407;-86
2021/05/13 11:28:42;;;;;;;;;;;;;;;;;;4990755;28;20239;-86
2021/05/13 11:31:18;;;;;;;7.18;3.55;;;;;;;;;;4971971;28;19922;-85
2021/05/13 11:33:50;;;;;;;7.82;5.00;;;;;;;;;;4987739;28;20067;-86
2021/05/13 11:36:26;;;;;;;5.07;1.55;;;;;;;;;;4995558;28;20082;-86
2021/05/13 11:39:09;;;;;;;4.45;1.42;;;;;;;;;;4973310;28;20054;-85
2021/05/13 11:41:37;;;;;;;5.07;1.70;;;;;;;;;;4976498;28;20077;-86
2021/05/13 11:44:05;;;;;;;4.20;1.38;;;;;;;;;;4994935;28;20395;-84
2021/05/13 11:46:36;;;;;;;6.80;2.08;;;;;;;;;;4962562;28;20394;-84
2021/05/13 11:49:08;;;;;;;5.85;1.58;;;;;;;;;;4966506;28;20104;-85
2021/05/13 11:51:44;;;;;;;4.05;1.58;;;;;;;;;;4999590;28;20058;-86
2021/05/13 11:54:14;;;;;;;6.05;1.50;;;;;;;;;;4985051;28;20062;-86
2021/05/13 11:56:47;;;;;;;5.72;2.00;;;;;;;;;;4984393;28;20101;-86
2021/05/13 11:59:15;;;;;;;4.57;1.60;;;;;;;;;;4982364;28;20117;-85
2021/05/13 12:01:46;;;;;;;3.95;1.45;;;;;;;;;;4999329;28;20061;-85
2021/05/13 12:04:18;;;;;;;5.47;1.35;;;;;;;;;;5001227;28;20078;-85
2021/05/13 12:07:02;;;;;;;3.58;1.25;;;;;;;;;;4984878;28;20050;-85
2021/05/13 12:09:33;;;;;;;6.90;1.10;;;;;;;;;;5002122;28;20054;-85
2021/05/13 12:15:23;;;;;;;5.03;1.88;;;;;;;;;;4987804;28;20150;-86
2021/05/13 12:17:50;;;;;;;5.88;2.40;;;;;;;;;;4986410;28;20206;-87
2021/05/13 12:20:43;;;;;;;6.20;1.58;;;;;;;;;;5006392;28;20050;-86
2021/05/13 12:23:17;;;;;;;4.38;1.52;;;;;;;;;;4991413;28;20081;-87
2021/05/13 12:26:14;;;;;;;3.78;1.20;;;;;;;;;;4996846;28;20126;-86
2021/05/13 12:28:42;;;;;;;4.78;1.55;;;;;;;;;;4977903;28;20376;-87
2021/05/13 12:31:25;;;;;;;7.25;1.33;;;;;;;;;;5003513;28;20046;-87
2021/05/13 12:33:53;;;;;;;4.93;1.48;;;;;;;;;;4994962;28;20101;-86
2021/05/13 12:36:23;;;;;;;1.98;0.80;;;;;;;;;;4982373;28;20062;-86
2021/05/13 12:38:53;;;;;;;5.78;0.90;;;;;;;;;;4983593;28;20065;-86
2021/05/13 12:41:25;;;;;;;3.97;1.63;;;;;;;;;;5001174;28;20089;-86
2021/05/13 12:44:11;;;;;;;3.45;1.10;;;;;;;;;;4982242;28;20153;-86
2021/05/13 12:47:19;;;;;;;;;;;;;;;;;;;;;
2021/05/13 12:49:59;;;;;;;4.78;1.70;;;;;;;;;;5002030;28;20125;-85
2021/05/13 12:52:41;;;;;;;4.95;1.38;;;;;;;;;;4985996;28;20050;-86
2021/05/13 12:55:21;;;;;;;4.28;1.30;;;;;;;;;;5003470;28;20240;-85
2021/05/13 12:57:49;;;;;;;6.35;1.80;;;;;;;;;;4992514;28;20243;-86
2021/05/13 13:00:17;;;;;;;6.60;1.42;;;;;;;;;;4991443;28;20113;-87
2021/05/13 13:02:47;;;;;;;5.78;1.60;;;;;;;;;;4983912;28;20413;-86
2021/05/13 13:05:22;;;;;;;3.05;0.90;;;;;;;;;;4984572;28;20054;-87
2021/05/13 13:07:53;;;;;;;4.88;1.73;;;;;;;;;;4986580;28;20054;-85
2021/05/13 13:10:27;;;;;;;5.60;1.52;;;;;;;;;;4985640;28;20066;-85
2021/05/13 13:13:06;;;;;;;3.90;1.42;;;;;;;;;;4987260;28;20062;-86
2021/05/13 13:15:49;;;;;;;6.65;1.75;;;;;;;;;;4985738;28;20082;-86
2021/05/13 13:18:37;;;;;;;4.97;2.15;;;;;;;;;;4993383;28;20051;-86
2021/05/13 13:21:20;;;;;;;5.20;1.58;;;;;;;;;;4983638;28;20077;-86
2021/05/13 13:24:02;;;;;;;3.15;1.02;;;;;;;;;;4984114;28;20046;-86
2021/05/13 13:30:14;;;;;;;4.78;1.40;;;;;;;;;;4993763;28;20057;-85
2021/05/13 13:36:48;;;;;;;5.47;1.40;;;;;;;;;;4996479;28;20049;-87
2021/05/13 13:39:54;;;;;;;4.60;1.13;;;;;;;;;;4983941;28;20073;-85
2021/05/13 13:42:46;;;;;;;;;;;;;;;;;;;;;
2021/05/13 13:45:28;;;;;;;3.55;1.33;;;;;;;;;;5011516;28;20053;-87
2021/05/13 13:48:16;;;;;;;7.68;1.27;;;;;;;;;;4994990;28;20114;-86
2021/05/13 13:51:07;;;;;;;6.43;1.48;;;;;;;;;;4983627;28;20094;-86
2021/05/13 13:54:05;;;;;;;7.40;1.77;;;;;;;;;;4992169;28;20073;-86
2021/05/13 13:56:54;;;;;;;3.45;1.13;;;;;;;;;;5009651;28;20185;-85
2021/05/13 13:59:58;;;;;;;5.25;1.73;;;;;;;;;;4993223;28;20078;-85
2021/05/13 14:02:49;;;;;;;;;;;;;;;;;;;;;
2021/05/13 14:05:36;;;;;;;8.60;1.52;;;;;;;;;;4998827;28;20077;-87
2021/05/13 14:08:17;;;;;;;5.72;1.60;;;;;;;;;;4997984;28;20137;-86
2021/05/13 14:11:35;;;;;;;5.90;1.88;;;;;;;;;;4996126;28;20211;-86
2021/05/13 14:14:21;;;;;;;6.65;2.05;;;;;;;;;;4892048;29;20239;-86
2021/05/13 14:17:13;;;;;;;7.05;2.20;;;;;;;;;;4867232;29;20337;-87
2021/05/13 14:20:05;;;;;;;6.15;1.77;;;;;;;;;;4886659;29;20105;-85
2021/05/13 14:23:28;;;;;;;5.43;1.60;;;;;;;;;;4872471;29;20067;-85
2021/05/13 14:26:35;;;;;;;10.02;3.42;;;;;;;;;;4806125;29;20273;-86
2021/05/13 14:30:17;;;;;;;8.48;2.53;;;;;;;;;;4854240;29;20125;-85
2021/05/13 14:32:57;;;;;;;4.63;1.90;;;;;;;;;;4869063;29;20085;-85
2021/05/13 14:39:03;;;;;;;5.25;1.55;;;;;;;;;;4907894;29;20059;-87
2021/05/13 14:45:16;;;;;;;5.80;1.63;;;;;;;;;;4915676;29;20092;-86
2021/05/13 14:48:17;;;;;;;7.00;1.98;;;;;;;;;;4902627;29;20054;-86
2021/05/13 14:51:43;;;;;;;;;;;;;;;;;;;;;
2021/05/13 14:54:36;;;;;;;5.43;2.00;;;;;;;;;;4936575;29;20094;-87
2021/05/13 15:00:41;;;;;;;3.88;1.95;;;;;;;;;;4956752;28;20093;-88
2021/05/13 15:03:40;;;;;;;;;;;;;;;;;;;;;
2021/05/13 15:06:22;;;;;;;12.50;2.10;;;;;;;;;;4958469;28;20047;-86
2021/05/13 15:09:43;;;;;;;6.60;2.33;;;;;;;;;;4966611;28;20055;-87
2021/05/13 15:12:24;;;;;;;;;;;;;;;;;;4950811;28;20063;-86
2021/05/13 15:15:04;;;;;;;10.07;2.28;;;;;;;;;;4973312;28;19932;-86
2021/05/13 15:17:42;;;;;;;5.90;2.08;;;;;;;;;;5006248;28;20050;-87
2021/05/13 15:20:25;;;;;;;4.80;1.67;;;;;;;;;;5008555;28;20051;-88
2021/05/13 15:23:41;;;;;;;6.00;1.90;;;;;;;;;;4983881;28;20073;-86
2021/05/13 15:26:16;;;;;;;7.68;1.80;;;;;;;;;;4959437;28;20055;-85
2021/05/13 15:28:45;;;;;;;10.35;2.92;;;;;;;;;;5009903;28;20445;-86
2021/05/13 15:31:31;;;;;;;5.90;2.17;;;;;;;;;;4984433;28;20073;-85
2021/05/13 15:34:10;;;;;;;6.70;1.98;;;;;;;;;;4989403;28;20054;-86
2021/05/13 15:36:51;;;;;;;5.07;1.98;;;;;;;;;;4988521;28;20082;-85
2021/05/13 15:40:10;;;;;;;7.40;2.05;;;;;;;;;;4989494;28;20510;-85
2021/05/13 15:42:50;;;;;;;6.72;2.03;;;;;;;;;;5006523;28;20166;-86
2021/05/13 15:45:27;;;;;;;4.53;1.75;;;;;;;;;;4989261;28;20089;-86
2021/05/13 15:47:56;;;;;;;5.50;1.77;;;;;;;;;;5003515;28;20062;-87
2021/05/13 15:50:27;;;;;;;5.47;2.05;;;;;;;;;;4985304;28;20062;-88
2021/05/13 15:53:38;;;;;;;6.00;2.85;;;;;;;;;;4994987;28;20271;-86
2021/05/13 15:56:14;;;;;;;6.45;1.95;;;;;;;;;;4987130;28;20058;-87
2021/05/13 15:58:43;;;;;;;5.60;1.85;;;;;;;;;;5004588;28;20182;-86
2021/05/13 16:06:35;;;;;;;4.55;2.10;;;;;;;;;;4984749;28;20062;-86